Time;durP1;ratioP1;P1;durP2;ratioP2;P2;SDS_P1;SDS_P2;PMS_P1;PMS_P2;Temp;Humidity;BMP_temperature;BMP_pressure;BME280_temperature;BME280_humidity;BME280_pressure;Samples;Min_cycle;Max_cycle;Signal;HPM_P1;HPM_P2
2021/11/03 00:00:54;;;;;;;13.60;6.15;;;;;;;20.16;80.94;101137.97;5057465;28;20098;-74
2021/11/03 00:03:22;;;;;;;13.95;7.18;;;;;;;20.14;81.50;101145.19;5062428;28;20049;-73
2021/11/03 00:05:50;;;;;;;10.48;5.32;;;;;;;20.12;81.58;101144.31;5066087;28;20036;-75
2021/11/03 00:08:21;;;;;;;12.93;6.70;;;;;;;20.10;82.09;101133.59;5044441;28;20520;-74
2021/11/03 00:10:52;;;;;;;15.25;6.05;;;;;;;20.10;82.13;101141.66;5062202;28;20045;-74
2021/11/03 00:13:23;;;;;;;22.20;6.88;;;;;;;20.10;82.32;101146.13;5062332;28;20116;-74
2021/11/03 00:15:52;;;;;;;14.70;6.47;;;;;;;20.10;82.26;101147.00;5063680;28;20110;-74
2021/11/03 00:18:20;;;;;;;14.57;7.10;;;;;;;20.14;82.72;101134.44;5064056;28;20048;-75
2021/11/03 00:20:49;;;;;;;12.70;6.68;;;;;;;20.21;82.79;101138.78;5066668;28;20062;-75
2021/11/03 00:23:17;;;;;;;11.77;6.10;;;;;;;20.27;82.72;101139.56;5061894;28;20083;-74
2021/11/03 00:25:47;;;;;;;12.90;6.63;;;;;;;20.32;82.68;101138.59;5057244;28;20072;-74
2021/11/03 00:28:17;;;;;;;13.60;7.18;;;;;;;20.38;82.41;101146.56;5060027;28;20381;-74
2021/11/03 00:30:48;;;;;;;14.48;6.75;;;;;;;20.42;82.50;101143.78;5060953;28;20091;-75
2021/11/03 00:33:17;;;;;;;14.13;6.85;;;;;;;20.45;82.50;101150.91;5061623;28;20176;-76
2021/11/03 00:35:45;;;;;;;15.45;6.10;;;;;;;20.49;82.46;101152.59;5046149;28;20064;-74
2021/11/03 00:38:13;;;;;;;14.10;6.97;;;;;;;20.52;82.31;101136.44;5041632;28;20036;-75
2021/11/03 00:40:41;;;;;;;12.95;6.20;;;;;;;20.54;82.33;101134.63;5046003;28;20045;-75
2021/11/03 00:43:09;;;;;;;12.55;5.85;;;;;;;20.55;81.97;101144.44;5063904;28;20037;-74
2021/11/03 00:45:37;;;;;;;14.45;6.45;;;;;;;20.55;82.04;101145.31;5043917;28;20052;-74
2021/11/03 00:48:09;;;;;;;13.40;5.95;;;;;;;20.57;81.83;101143.50;5047121;28;20059;-76
2021/11/03 00:50:39;;;;;;;15.68;6.45;;;;;;;20.56;81.90;101141.72;5060644;28;20036;-75
2021/11/03 00:53:08;;;;;;;12.80;6.40;;;;;;;20.61;81.61;101150.56;5058514;28;20033;-75
2021/11/03 00:55:35;;;;;;;11.18;5.28;;;;;;;20.63;81.35;101150.53;5065611;28;20083;-76
2021/11/03 00:58:04;;;;;;;9.40;4.72;;;;;;;20.65;81.25;101173.75;5065841;28;20065;-75
2021/11/03 01:00:32;;;;;;;11.65;5.50;;;;;;;20.64;81.20;101155.88;5048764;28;20666;-76
2021/11/03 01:03:01;;;;;;;11.13;5.53;;;;;;;20.66;80.94;101156.75;5061884;28;20166;-75
2021/11/03 01:05:31;;;;;;;12.00;6.47;;;;;;;20.69;81.00;101159.34;5062160;28;20048;-75
2021/11/03 01:07:58;;;;;;;13.50;6.57;;;;;;;20.70;81.03;101149.50;5040033;28;20163;-75
2021/11/03 01:10:26;;;;;;;11.95;6.57;;;;;;;20.72;80.58;101146.78;5059013;28;20091;-75
2021/11/03 01:12:54;;;;;;;10.93;6.28;;;;;;;20.73;80.33;101143.19;5062995;28;20040;-74
2021/11/03 01:15:25;;;;;;;13.48;6.65;;;;;;;20.74;80.53;101140.50;5045302;28;20052;-74
2021/11/03 01:17:54;;;;;;;11.57;5.72;;;;;;;20.73;80.54;101128.00;5041339;28;20041;-74
2021/11/03 01:20:23;;;;;;;14.88;6.47;;;;;;;20.71;80.46;101123.56;5062073;28;20063;-75
2021/11/03 01:22:54;;;;;;;12.82;7.03;;;;;;;20.70;80.39;101128.03;5046292;28;20033;-76
2021/11/03 01:25:23;;;;;;;11.82;5.50;;;;;;;20.66;80.41;101131.72;5063638;28;20052;-75
2021/11/03 01:27:51;;;;;;;12.82;5.45;;;;;;;20.63;80.59;101129.97;5068370;28;20415;-73
2021/11/03 01:30:21;;;;;;;12.30;6.30;;;;;;;20.61;80.33;101133.59;5068371;28;20484;-75
2021/11/03 01:32:49;;;;;;;13.15;6.13;;;;;;;20.58;80.29;101125.59;5068837;28;20421;-74
2021/11/03 01:35:18;;;;;;;15.10;6.68;;;;;;;20.54;80.33;101127.47;5046542;28;20642;-75
2021/11/03 01:37:46;;;;;;;13.70;5.97;;;;;;;20.50;80.48;101119.50;5049662;28;20048;-74
2021/11/03 01:40:19;;;;;;;8.65;5.53;;;;;;;20.47;80.65;101136.56;5053200;28;20428;-75
2021/11/03 01:42:48;;;;;;;12.20;5.80;;;;;;;20.43;81.02;101139.31;5058425;28;20049;-75
2021/11/03 01:45:19;;;;;;;17.27;7.43;;;;;;;20.41;80.94;101143.84;5048933;28;20072;-75
2021/11/03 01:47:51;;;;;;;12.18;6.55;;;;;;;20.39;80.76;101140.28;5058996;28;20040;-75
2021/11/03 01:50:24;;;;;;;11.32;6.13;;;;;;;20.34;81.13;101140.38;5049465;28;20054;-76
2021/11/03 01:52:59;;;;;;;13.00;7.07;;;;;;;20.29;80.97;101158.28;5047425;28;20098;-75
2021/11/03 01:55:31;;;;;;;15.52;7.68;;;;;;;20.25;81.02;101157.47;5048669;28;20063;-75
2021/11/03 01:58:05;;;;;;;12.82;6.10;;;;;;;20.21;81.11;101163.81;5047452;28;20124;-74
2021/11/03 02:00:36;;;;;;;7.85;5.18;;;;;;;20.19;81.25;101171.00;5043863;28;20036;-75
2021/11/03 02:03:08;;;;;;;13.93;5.80;;;;;;;20.16;81.18;101173.72;5062379;28;20725;-74
2021/11/03 02:05:43;;;;;;;11.50;6.30;;;;;;;20.15;81.28;101177.28;5067433;28;20078;-75
2021/11/03 02:08:12;;;;;;;9.93;5.32;;;;;;;20.15;81.01;101176.44;5049550;28;20118;-75
2021/11/03 02:10:42;;;;;;;13.07;6.35;;;;;;;20.19;80.80;101175.47;5050175;28;20382;-75
2021/11/03 02:13:12;;;;;;;10.55;4.80;;;;;;;20.23;80.18;101172.69;5040017;28;20064;-74
2021/11/03 02:15:42;;;;;;;13.07;5.03;;;;;;;20.29;79.97;101163.66;5059989;28;20056;-75
2021/11/03 02:18:13;;;;;;;10.43;4.78;;;;;;;20.33;79.59;101148.44;5048000;28;20037;-75
2021/11/03 02:20:43;;;;;;;9.93;5.30;;;;;;;20.37;79.12;101153.72;5040500;28;20053;-75
2021/11/03 02:23:18;;;;;;;10.50;4.72;;;;;;;20.40;78.70;101161.72;5037279;28;20056;-74
2021/11/03 02:26:01;;;;;;;13.13;5.00;;;;;;;20.42;78.80;101158.97;5046158;28;20037;-74
2021/11/03 02:28:31;;;;;;;11.00;4.72;;;;;;;20.38;78.69;101157.28;5047561;28;20040;-74
2021/11/03 02:31:00;;;;;;;9.13;4.65;;;;;;;20.34;78.58;101164.50;5044385;28;20643;-74
2021/11/03 02:33:29;;;;;;;10.88;5.55;;;;;;;20.33;78.72;101169.91;5038607;28;21113;-73
2021/11/03 02:35:59;;;;;;;12.52;5.60;;;;;;;20.32;78.43;101170.78;5062496;28;20462;-74
2021/11/03 02:38:34;;;;;;;10.43;5.25;;;;;;;20.28;78.57;101176.16;5041528;28;20056;-75
2021/11/03 02:41:08;;;;;;;13.80;5.45;;;;;;;20.27;78.71;101170.88;5057941;28;20037;-75
2021/11/03 02:43:42;;;;;;;11.20;5.28;;;;;;;20.25;78.82;101170.88;5042548;28;20055;-74
2021/11/03 02:46:12;;;;;;;11.07;5.65;;;;;;;20.24;78.68;101165.53;5050375;28;20049;-75
2021/11/03 02:48:43;;;;;;;9.45;5.45;;;;;;;20.21;78.49;101163.81;5045737;28;20046;-75
2021/11/03 02:51:14;;;;;;;10.52;4.60;;;;;;;20.20;78.52;101162.03;5048199;28;20055;-73
2021/11/03 02:53:45;;;;;;;11.57;5.07;;;;;;;20.21;78.66;101162.94;5045356;28;20123;-74
2021/11/03 02:56:17;;;;;;;8.38;4.40;;;;;;;20.23;78.14;101150.34;5048624;28;20036;-74
2021/11/03 02:58:45;;;;;;;8.82;4.65;;;;;;;20.27;78.16;101152.97;5058876;28;20044;-74
2021/11/03 03:01:21;;;;;;;12.25;4.28;;;;;;;20.30;77.93;101162.75;5045695;28;20041;-74
2021/11/03 03:03:50;;;;;;;9.13;4.95;;;;;;;20.33;77.69;101164.53;5047615;28;20451;-75
2021/11/03 03:06:24;;;;;;;8.60;4.55;;;;;;;20.33;77.45;101170.78;5064154;28;20103;-75
2021/11/03 03:08:54;;;;;;;8.60;4.00;;;;;;;20.34;77.56;101174.34;5041276;28;20546;-75
2021/11/03 03:11:27;;;;;;;12.15;5.70;;;;;;;20.35;77.27;101190.38;5034925;28;20063;-74
2021/11/03 03:13:55;;;;;;;10.75;5.28;;;;;;;20.34;77.38;101194.00;5040674;28;20041;-74
2021/11/03 03:16:23;;;;;;;8.60;4.68;;;;;;;20.34;76.96;101204.75;5054866;28;20049;-75
2021/11/03 03:18:52;;;;;;;9.85;4.60;;;;;;;20.31;77.07;101204.75;5044527;28;20131;-73
2021/11/03 03:21:23;;;;;;;8.60;4.10;;;;;;;20.29;77.02;101195.84;5036414;28;20076;-74
2021/11/03 03:23:51;;;;;;;7.13;3.42;;;;;;;20.26;77.17;101193.22;5050003;28;20052;-74
2021/11/03 03:26:23;;;;;;;12.45;5.03;;;;;;;20.24;77.68;101187.00;5059077;28;20094;-74
2021/11/03 03:28:54;;;;;;;10.50;5.00;;;;;;;20.20;77.87;101186.16;5037942;28;20087;-73
2021/11/03 03:31:24;;;;;;;12.82;5.15;;;;;;;20.16;77.67;101184.44;5046292;28;20048;-74
2021/11/03 03:33:53;;;;;;;10.45;4.88;;;;;;;20.12;77.91;101182.72;5050225;28;20039;-74
2021/11/03 03:36:23;;;;;;;10.43;5.13;;;;;;;20.12;77.98;101182.72;5059389;28;20070;-74
2021/11/03 03:38:52;;;;;;;12.55;5.38;;;;;;;20.15;78.14;101188.03;5052709;28;20571;-73
2021/11/03 03:41:22;;;;;;;11.00;4.75;;;;;;;20.17;78.12;101198.72;5043487;28;20044;-75
2021/11/03 03:43:50;;;;;;;9.23;5.25;;;;;;;20.17;77.97;101201.41;5063484;28;20052;-75
2021/11/03 03:46:21;;;;;;;11.35;5.07;;;;;;;20.17;77.97;101206.78;5038028;28;20130;-75
2021/11/03 03:48:49;;;;;;;15.10;4.72;;;;;;;20.15;78.19;101203.25;5066021;28;20127;-75
2021/11/03 03:51:17;;;;;;;13.45;4.93;;;;;;;20.12;78.09;101198.81;5063926;28;20110;-75
2021/11/03 03:53:46;;;;;;;10.60;5.05;;;;;;;20.13;78.15;101203.28;5060940;28;20068;-75
2021/11/03 03:56:18;;;;;;;8.95;4.28;;;;;;;20.21;77.78;101203.16;5038229;28;20658;-75
2021/11/03 03:58:48;;;;;;;9.50;4.20;;;;;;;20.20;77.68;101206.72;5054698;28;20053;-74
2021/11/03 04:01:21;;;;;;;12.85;3.97;;;;;;;20.27;77.48;101201.25;5036840;28;20051;-75
2021/11/03 04:03:49;;;;;;;6.38;3.60;;;;;;;20.30;77.45;101198.50;5041430;28;20040;-74
2021/11/03 04:06:18;;;;;;;10.18;3.40;;;;;;;20.37;77.46;101202.00;5063639;28;20053;-73
2021/11/03 04:08:46;;;;;;;9.80;4.10;;;;;;;20.43;77.39;101209.91;5053221;28;20501;-74
2021/11/03 04:11:15;;;;;;;9.90;3.80;;;;;;;20.47;76.88;101200.94;5037369;28;20819;-74
2021/11/03 04:13:43;;;;;;;7.95;3.40;;;;;;;20.50;77.05;101203.53;5039217;28;20044;-74
2021/11/03 04:16:11;;;;;;;12.32;5.07;;;;;;;20.51;77.10;101199.06;5060674;28;20068;-74
2021/11/03 04:18:41;;;;;;;9.13;4.35;;;;;;;20.56;77.56;101207.91;5042912;28;20087;-75
2021/11/03 04:21:11;;;;;;;8.68;4.15;;;;;;;20.53;77.87;101210.66;5047471;28;20056;-74
2021/11/03 04:23:38;;;;;;;12.05;5.03;;;;;;;20.54;78.18;101204.38;5046681;28;20115;-75
2021/11/03 04:26:18;;;;;;;7.78;4.15;;;;;;;20.55;78.45;101220.44;5038368;28;20091;-75
2021/11/03 04:28:45;;;;;;;11.68;5.38;;;;;;;20.58;78.90;101227.56;5043470;28;20102;-74
2021/11/03 04:31:13;;;;;;;9.30;4.18;;;;;;;20.55;78.97;101233.84;5054587;28;20044;-74
2021/11/03 04:33:43;;;;;;;8.70;4.38;;;;;;;20.53;79.41;101241.06;5042504;28;20058;-76
2021/11/03 04:36:11;;;;;;;9.52;5.63;;;;;;;20.53;79.56;101238.38;5056187;28;20037;-74
2021/11/03 04:38:39;;;;;;;11.70;5.88;;;;;;;20.54;79.93;101241.94;5051915;28;20041;-74
2021/11/03 04:41:07;;;;;;;7.47;3.90;;;;;;;20.56;80.39;101243.66;5047680;28;20037;-74
2021/11/03 04:43:35;;;;;;;7.85;3.40;;;;;;;20.56;80.23;101232.94;5035030;28;20527;-75
2021/11/03 04:46:03;;;;;;;14.38;6.70;;;;;;;20.58;80.30;101243.66;5042059;28;20055;-73
2021/11/03 04:48:31;;;;;;;10.77;4.68;;;;;;;20.60;80.29;101245.41;5046593;28;20382;-74
2021/11/03 04:51:01;;;;;;;14.05;6.20;;;;;;;20.62;80.25;101240.88;5048243;28;20618;-75
2021/11/03 04:53:29;;;;;;;10.85;4.30;;;;;;;20.63;80.42;101256.06;5035969;28;20048;-74
2021/11/03 04:55:56;;;;;;;15.27;6.07;;;;;;;20.64;80.63;101251.59;5045114;28;20041;-74
2021/11/03 04:58:26;;;;;;;10.85;5.05;;;;;;;20.62;80.61;101264.13;5042073;28;20040;-75
2021/11/03 05:00:55;;;;;;;13.40;6.22;;;;;;;20.59;80.26;101265.09;5033753;28;20390;-74
2021/11/03 05:03:23;;;;;;;8.82;5.15;;;;;;;20.56;80.52;101267.81;5046591;28;20045;-72
2021/11/03 05:05:54;;;;;;;9.38;5.43;;;;;;;20.54;80.57;101261.63;5050168;28;20053;-75
2021/11/03 05:08:25;;;;;;;12.05;5.00;;;;;;;20.52;80.44;101262.53;5039638;28;20041;-74
2021/11/03 05:10:54;;;;;;;8.27;4.55;;;;;;;20.50;80.59;101262.56;5043692;28;20045;-74
2021/11/03 05:13:23;;;;;;;9.80;5.25;;;;;;;20.52;80.86;101252.69;5039169;28;20077;-75
2021/11/03 05:15:51;;;;;;;13.82;4.10;;;;;;;20.54;81.04;101266.97;5064672;28;20048;-74
2021/11/03 05:18:19;;;;;;;13.25;5.47;;;;;;;20.56;81.00;101274.97;5062627;28;20452;-74
2021/11/03 05:20:47;;;;;;;12.00;6.05;;;;;;;20.58;81.26;101273.16;5042513;28;20068;-75
2021/11/03 05:23:15;;;;;;;9.85;4.60;;;;;;;20.60;81.03;101276.72;5045291;28;20500;-75
2021/11/03 05:25:45;;;;;;;11.02;4.88;;;;;;;20.66;81.20;101288.22;5047189;28;20493;-75
2021/11/03 05:28:13;;;;;;;10.75;4.75;;;;;;;20.79;81.50;101288.88;5046575;28;20057;-75
2021/11/03 05:30:40;;;;;;;12.07;4.85;;;;;;;20.98;81.62;101300.16;5047416;28;20091;-75
2021/11/03 05:33:08;;;;;;;9.93;4.35;;;;;;;21.15;81.46;101302.53;5048606;28;20397;-74
2021/11/03 05:35:36;;;;;;;9.63;4.40;;;;;;;21.31;80.83;101298.66;5045534;28;20041;-75
2021/11/03 05:38:04;;;;;;;8.45;4.43;;;;;;;21.46;80.13;101298.38;5049008;28;20060;-75
2021/11/03 05:40:32;;;;;;;8.95;4.53;;;;;;;21.61;79.42;101295.34;5048465;28;20049;-74
2021/11/03 05:43:02;;;;;;;15.05;5.75;;;;;;;21.77;78.46;101303.97;5044350;28;20045;-74
2021/11/03 05:45:30;;;;;;;13.18;6.47;;;;;;;21.90;77.74;101305.47;5038788;28;20045;-75
2021/11/03 05:47:58;;;;;;;8.02;5.18;;;;;;;22.03;77.10;101316.88;5042238;28;20493;-75
2021/11/03 05:50:28;;;;;;;11.90;5.28;;;;;;;22.16;76.81;101319.25;5043101;28;20546;-74
2021/11/03 05:52:56;;;;;;;8.35;3.88;;;;;;;22.29;76.58;101316.25;5036832;28;20268;-75
2021/11/03 05:55:24;;;;;;;6.07;3.75;;;;;;;22.43;76.05;101322.19;5046701;28;20416;-74
2021/11/03 05:57:53;;;;;;;9.38;5.00;;;;;;;22.53;75.28;101332.69;5045211;28;20573;-75
2021/11/03 06:00:26;;;;;;;8.40;3.75;;;;;;;22.69;75.23;101324.25;5042533;28;20040;-75
2021/11/03 06:02:54;;;;;;;9.00;4.60;;;;;;;22.79;74.48;101333.88;5055924;28;20037;-73
2021/11/03 06:05:23;;;;;;;9.90;3.70;;;;;;;22.86;74.16;101332.81;5064217;28;20044;-78
2021/11/03 06:07:52;;;;;;;8.55;4.07;;;;;;;22.93;73.57;101338.00;5068427;28;20048;-75
2021/11/03 06:10:27;;;;;;;7.85;4.00;;;;;;;23.04;73.42;101338.59;5061745;28;20117;-76
2021/11/03 06:12:56;;;;;;;10.30;4.15;;;;;;;23.14;73.23;101344.63;5063271;28;20041;-75
2021/11/03 06:15:27;;;;;;;13.10;4.50;;;;;;;23.27;73.38;101342.47;5066383;28;20048;-74
2021/11/03 06:17:55;;;;;;;10.07;4.35;;;;;;;23.39;72.86;101337.63;5065825;28;20037;-75
2021/11/03 06:20:24;;;;;;;5.57;3.08;;;;;;;23.50;72.28;101353.53;5066401;28;20492;-74
2021/11/03 06:22:52;;;;;;;13.18;4.60;;;;;;;23.59;71.76;101350.56;5067761;28;20036;-74
2021/11/03 06:25:21;;;;;;;7.93;4.00;;;;;;;23.72;71.23;101360.09;5064571;28;20527;-75
2021/11/03 06:27:49;;;;;;;11.05;4.05;;;;;;;23.87;71.34;101355.16;5044119;28;20064;-76
2021/11/03 06:30:20;;;;;;;6.97;3.95;;;;;;;24.02;70.67;101355.59;5066774;28;20101;-75
2021/11/03 06:32:50;;;;;;;8.45;3.83;;;;;;;24.13;70.36;101350.75;5058198;28;20044;-76
2021/11/03 06:35:19;;;;;;;6.18;3.50;;;;;;;24.22;69.67;101346.91;5064785;28;20048;-77
2021/11/03 06:37:46;;;;;;;8.48;3.67;;;;;;;24.16;69.01;101347.06;5050852;28;20040;-78
2021/11/03 06:40:17;;;;;;;11.63;4.47;;;;;;;24.14;69.17;101363.31;5067178;28;20047;-77
2021/11/03 06:42:45;;;;;;;8.65;3.75;;;;;;;24.15;69.02;101359.69;5055868;28;20044;-76
2021/11/03 06:45:15;;;;;;;10.52;3.90;;;;;;;24.16;69.05;101357.84;5065922;28;20059;-73
2021/11/03 06:47:43;;;;;;;11.70;4.22;;;;;;;24.18;69.19;101356.00;5063262;28;20044;-76
2021/11/03 06:50:15;;;;;;;8.30;3.17;;;;;;;24.23;69.18;101372.97;5063813;28;20442;-79
2021/11/03 06:52:45;;;;;;;7.75;4.10;;;;;;;24.20;68.44;101375.75;5059117;28;20055;-79
2021/11/03 06:55:13;;;;;;;7.47;4.15;;;;;;;24.21;68.76;101381.13;5040907;28;20144;-78
2021/11/03 06:57:41;;;;;;;9.98;4.13;;;;;;;24.25;69.27;101375.63;5060275;28;20036;-75
2021/11/03 07:00:15;;;;;;;10.70;3.70;;;;;;;24.39;69.08;101382.34;5061687;28;20075;-76
2021/11/03 07:02:43;;;;;;;7.78;3.83;;;;;;;24.55;69.04;101386.31;5056863;28;20037;-75
2021/11/03 07:05:12;;;;;;;9.30;3.60;;;;;;;24.62;68.04;101378.91;5042727;28;20047;-78
2021/11/03 07:07:40;;;;;;;9.30;4.03;;;;;;;24.64;67.55;101385.16;5060472;28;20049;-78
2021/11/03 07:10:09;;;;;;;8.75;4.07;;;;;;;24.68;67.51;101388.66;5061683;28;20126;-80
2021/11/03 07:12:37;;;;;;;9.85;4.30;;;;;;;24.72;67.64;101382.19;5064388;28;20048;-80
2021/11/03 07:15:05;;;;;;;10.30;4.00;;;;;;;24.74;67.19;101399.25;5059190;28;20036;-78
2021/11/03 07:17:33;;;;;;;8.77;3.75;;;;;;;24.80;67.34;101401.75;5058613;28;20060;-85
2021/11/03 07:20:01;;;;;;;8.00;3.53;;;;;;;24.84;67.07;101398.88;5041044;28;20489;-77
2021/11/03 07:22:30;;;;;;;10.52;4.40;;;;;;;24.88;66.75;101392.44;5038573;28;20052;-79
2021/11/03 07:24:58;;;;;;;6.63;3.55;;;;;;;24.92;66.54;101379.75;5045552;28;20090;-80
2021/11/03 07:27:26;;;;;;;9.35;4.03;;;;;;;25.01;66.18;101403.75;5062770;28;20043;-80
2021/11/03 07:29:54;;;;;;;6.03;3.20;;;;;;;25.08;66.13;101397.19;5058548;28;20102;-80
2021/11/03 07:32:21;;;;;;;8.88;3.22;;;;;;;25.12;65.74;101408.81;5063377;28;20055;-79
2021/11/03 07:34:49;;;;;;;7.60;2.92;;;;;;;25.18;65.69;101397.78;5060144;28;20051;-83
2021/11/03 07:37:17;;;;;;;5.82;2.95;;;;;;;25.24;65.59;101403.84;5056024;28;20055;-82
2021/11/03 07:39:46;;;;;;;6.25;3.38;;;;;;;25.29;65.41;101409.97;5060594;28;20074;-87
2021/11/03 07:42:14;;;;;;;6.97;3.28;;;;;;;25.42;65.11;101408.59;5052845;28;20057;-79
2021/11/03 07:44:47;;;;;;;8.65;3.90;;;;;;;25.50;64.92;101412.88;5039966;28;20041;-79
2021/11/03 07:47:16;;;;;;;7.70;3.42;;;;;;;25.56;64.20;101409.94;5058380;28;20145;-79
2021/11/03 07:49:44;;;;;;;7.22;3.33;;;;;;;25.53;64.09;101415.47;5060890;28;20390;-81
2021/11/03 07:52:12;;;;;;;7.95;3.38;;;;;;;25.62;64.55;101404.34;5058946;28;20045;-83
2021/11/03 07:54:40;;;;;;;6.03;3.28;;;;;;;25.72;64.58;101414.78;5059093;28;20451;-79
2021/11/03 07:57:10;;;;;;;11.70;4.03;;;;;;;25.83;63.57;101422.50;5059905;28;20435;-81
2021/11/03 07:59:38;;;;;;;9.98;3.90;;;;;;;25.92;64.14;101423.97;5050443;28;20051;-82
2021/11/03 08:02:06;;;;;;;12.63;4.45;;;;;;;26.03;63.50;101429.88;5066408;28;20119;-77
2021/11/03 08:04:33;;;;;;;12.63;4.22;;;;;;;26.16;63.40;101420.34;5063057;28;20049;-77
2021/11/03 08:07:01;;;;;;;9.65;3.72;;;;;;;26.30;63.09;101422.56;5042815;28;20064;-77
2021/11/03 08:09:30;;;;;;;7.22;2.72;;;;;;;26.34;62.09;101413.34;5054679;28;20049;-86
2021/11/03 08:12:01;;;;;;;9.25;3.90;;;;;;;26.36;62.52;101427.72;5053777;28;20056;-81
2021/11/03 08:14:32;;;;;;;9.70;3.65;;;;;;;26.45;62.28;101424.66;5058071;28;20519;-79
2021/11/03 08:17:03;;;;;;;10.88;3.50;;;;;;;26.43;61.47;101426.53;5053404;28;20041;-80
2021/11/03 08:19:39;;;;;;;9.70;3.20;;;;;;;26.38;61.98;101421.31;5029112;28;20128;-82
2021/11/03 08:22:08;;;;;;;10.52;4.28;;;;;;;26.45;61.91;101425.53;5062823;28;20041;-79
2021/11/03 08:24:36;;;;;;;10.18;3.50;;;;;;;26.58;61.61;101423.22;5054796;28;20409;-78
2021/11/03 08:27:05;;;;;;;12.40;3.80;;;;;;;26.63;61.21;101414.91;5061432;28;20086;-85
2021/11/03 08:29:38;;;;;;;8.63;3.53;;;;;;;26.70;60.98;101420.03;5064481;28;20723;-87
2021/11/03 08:32:09;;;;;;;6.63;3.05;;;;;;;26.77;60.62;101421.53;5066557;28;20717;-79
2021/11/03 08:34:38;;;;;;;12.25;3.35;;;;;;;26.78;60.38;101425.13;5063973;28;20048;-88
2021/11/03 08:37:10;;;;;;;7.28;3.13;;;;;;;26.84;60.50;101424.88;5061837;28;20068;-83
2021/11/03 08:39:41;;;;;;;8.50;3.65;;;;;;;26.91;60.13;101415.59;5067566;28;20033;-85
2021/11/03 08:42:10;;;;;;;8.90;2.72;;;;;;;26.89;59.70;101426.50;5038024;28;20033;-83
2021/11/03 08:44:40;;;;;;;6.95;2.83;;;;;;;26.89;60.31;101431.91;5057809;28;20037;-83
2021/11/03 08:47:09;;;;;;;8.15;2.80;;;;;;;26.94;59.87;101421.75;5062336;28;20048;-86
2021/11/03 08:49:37;;;;;;;8.68;2.92;;;;;;;27.07;60.16;101426.66;5060228;28;20065;-83
2021/11/03 08:52:06;;;;;;;5.40;2.70;;;;;;;27.18;59.57;101436.09;5055558;28;20049;-83
2021/11/03 08:54:34;;;;;;;7.00;2.58;;;;;;;27.30;59.25;101430.16;5069873;28;20051;-83
2021/11/03 08:57:03;;;;;;;9.60;3.58;;;;;;;27.33;58.72;101427.31;5070564;28;20400;-82
2021/11/03 08:59:34;;;;;;;9.43;2.92;;;;;;;27.41;59.29;101426.09;5069543;28;20119;-81
2021/11/03 09:02:03;;;;;;;12.20;4.13;;;;;;;27.47;58.82;101432.13;5065967;28;20044;-82
2021/11/03 09:04:32;;;;;;;8.98;3.40;;;;;;;27.55;58.49;101427.28;5057994;28;20053;-82
2021/11/03 09:07:00;;;;;;;9.73;3.22;;;;;;;27.65;58.33;101427.75;5043663;28;20041;-82
2021/11/03 09:09:28;;;;;;;8.32;3.50;;;;;;;27.64;57.42;101426.88;5061877;28;20048;-81
2021/11/03 09:12:02;;;;;;;7.45;2.58;;;;;;;27.69;58.09;101419.44;5068126;28;20048;-84
2021/11/03 09:14:30;;;;;;;8.43;3.20;;;;;;;27.69;56.93;101418.53;5061442;28;20055;-83
2021/11/03 09:16:57;;;;;;;10.57;3.38;;;;;;;27.68;57.56;101428.50;5067236;28;20082;-82
2021/11/03 09:19:28;;;;;;;8.00;3.30;;;;;;;27.70;57.16;101420.28;5060916;28;20061;-79
2021/11/03 09:21:57;;;;;;;6.65;3.10;;;;;;;27.66;57.02;101415.94;5050743;28;20412;-88
2021/11/03 09:24:25;;;;;;;5.90;2.65;;;;;;;27.49;56.96;101422.09;5068762;28;20094;-83
2021/11/03 09:26:53;;;;;;;6.30;2.50;;;;;;;27.41;57.51;101426.97;5073873;28;20055;-88
2021/11/03 09:29:20;;;;;;;8.25;3.00;;;;;;;27.39;57.63;101412.59;5052456;28;20454;-84
2021/11/03 09:31:48;;;;;;;9.95;3.22;;;;;;;27.45;58.05;101415.03;5059165;28;20064;-82
2021/11/03 09:34:16;;;;;;;6.28;2.83;;;;;;;27.55;57.72;101416.44;5070686;28;20063;-88
2021/11/03 09:36:46;;;;;;;10.45;3.55;;;;;;;27.56;57.41;101411.91;5046829;28;20114;-81
2021/11/03 09:39:14;;;;;;;9.13;3.00;;;;;;;27.51;57.51;101406.63;5041888;28;20077;-78
2021/11/03 09:41:46;;;;;;;8.52;3.00;;;;;;;27.45;57.18;101409.59;5066479;28;20485;-83
2021/11/03 09:44:19;;;;;;;6.80;2.45;;;;;;;27.34;57.76;101412.81;5037097;28;20068;-82
2021/11/03 09:46:52;;;;;;;11.98;3.80;;;;;;;27.44;58.24;101404.28;5046479;28;20131;-83
2021/11/03 09:49:27;;;;;;;7.13;2.95;;;;;;;27.55;57.92;101412.84;5052018;28;20055;-79
2021/11/03 09:52:00;;;;;;;9.23;3.33;;;;;;;27.58;57.53;101413.56;5071164;28;20044;-84
2021/11/03 09:54:33;;;;;;;8.65;2.83;;;;;;;27.62;57.13;101412.50;5038121;28;20080;-86
2021/11/03 09:57:08;;;;;;;7.10;2.92;;;;;;;27.70;57.28;101401.28;5046317;28;20120;-87
2021/11/03 09:59:40;;;;;;;7.00;3.00;;;;;;;27.65;56.94;101397.91;5061368;28;20056;-84
2021/11/03 10:02:26;;;;;;;9.00;3.08;;;;;;;27.51;57.13;101401.19;5048272;28;20049;-81
2021/11/03 10:05:10;;;;;;;6.60;3.00;;;;;;;27.43;57.06;101395.25;5047168;28;20033;-79
2021/11/03 10:07:49;;;;;;;10.48;3.38;;;;;;;27.33;57.37;101383.03;5056923;28;20044;-79
2021/11/03 10:10:28;;;;;;;7.28;3.30;;;;;;;27.29;57.49;101384.13;5069262;28;20520;-82
2021/11/03 10:12:56;;;;;;;8.35;2.53;;;;;;;27.30;57.57;101372.34;5053512;28;20045;-80
2021/11/03 10:15:26;;;;;;;10.60;2.63;;;;;;;27.29;57.64;101379.59;5070143;28;20066;-88
2021/11/03 10:18:16;;;;;;;8.60;2.88;;;;;;;27.36;57.43;101377.47;5065438;28;20045;-86
2021/11/03 10:20:49;;;;;;;5.57;2.53;;;;;;;27.33;57.48;101366.75;5066965;28;20041;-86
2021/11/03 10:23:25;;;;;;;13.55;3.85;;;;;;;27.30;57.60;101383.19;5044382;28;20508;-82
2021/11/03 10:26:02;;;;;;;6.72;3.17;;;;;;;27.31;57.92;101374.94;5042151;28;20529;-81
2021/11/03 10:28:40;;;;;;;9.23;3.65;;;;;;;27.32;57.74;101359.56;5066061;28;20090;-88
2021/11/03 10:31:23;;;;;;;4.25;1.90;;;;;;;27.35;58.03;101364.88;5067616;28;20043;-84
2021/11/03 10:33:59;;;;;;;9.55;2.75;;;;;;;27.46;58.29;101354.41;5038321;28;20584;-87
2021/11/03 10:36:36;;;;;;;8.75;3.95;;;;;;;27.46;57.74;101361.66;5062375;28;20423;-90
2021/11/03 10:39:20;;;;;;;5.72;2.80;;;;;;;27.45;58.08;101362.59;5064314;28;20045;-87
2021/11/03 10:41:56;;;;;;;8.60;3.13;;;;;;;27.44;58.16;101352.72;5065844;28;20485;-84
2021/11/03 10:44:26;;;;;;;9.88;3.10;;;;;;;27.45;58.13;101349.94;5053039;28;20071;-74
2021/11/03 10:46:56;;;;;;;12.32;3.38;;;;;;;27.42;58.51;101354.63;5045890;28;20080;-85
2021/11/03 10:49:34;;;;;;;5.25;2.60;;;;;;;27.49;58.51;101351.56;5050406;28;20413;-80
2021/11/03 10:52:35;;;;;;;9.13;3.88;;;;;;;27.48;58.61;101344.38;5046712;28;20041;-82
2021/11/03 10:55:17;;;;;;;6.20;2.60;;;;;;;27.51;58.27;101333.38;5053607;28;20047;-83
2021/11/03 10:57:56;;;;;;;7.35;2.92;;;;;;;27.49;57.63;101343.44;5062690;28;20083;-81
2021/11/03 11:00:27;;;;;;;8.77;3.13;;;;;;;27.45;57.84;101330.94;5069673;28;20045;-90
2021/11/03 11:03:02;;;;;;;9.98;2.65;;;;;;;27.46;57.72;101330.00;5064280;28;20497;-80
2021/11/03 11:05:33;;;;;;;8.27;2.60;;;;;;;27.54;57.65;101330.56;5061873;28;20045;-84
2021/11/03 11:08:04;;;;;;;8.55;2.78;;;;;;;27.69;57.21;101326.28;5055699;28;20037;-81
2021/11/03 11:10:41;;;;;;;7.47;2.42;;;;;;;27.77;56.50;101324.94;5050337;28;20075;-85
2021/11/03 11:13:18;;;;;;;6.45;2.35;;;;;;;27.85;56.53;101338.16;5037875;28;20037;-84
2021/11/03 11:15:56;;;;;;;5.07;2.78;;;;;;;27.90;56.17;101332.50;5064068;28;20053;-85
2021/11/03 11:18:49;;;;;;;7.00;2.33;;;;;;;27.88;56.12;101339.88;5050620;28;20515;-85
2021/11/03 11:21:36;;;;;;;7.03;2.20;;;;;;;27.91;55.30;101340.59;5059166;28;20511;-78
2021/11/03 11:24:11;;;;;;;5.63;2.40;;;;;;;27.85;55.51;101329.13;5064444;28;20040;-83
2021/11/03 11:26:48;;;;;;;3.92;1.90;;;;;;;27.79;55.58;101326.72;5065040;28;20488;-85
2021/11/03 11:29:23;;;;;;;8.32;2.85;;;;;;;27.70;55.74;101331.59;5052594;28;20056;-88
2021/11/03 11:31:57;;;;;;;8.00;2.63;;;;;;;27.62;55.84;101335.66;5064206;28;20045;-85
2021/11/03 11:34:48;;;;;;;8.25;2.58;;;;;;;27.52;56.08;101335.19;5067690;28;20098;-81
2021/11/03 11:37:22;;;;;;;7.03;2.08;;;;;;;27.36;56.29;101336.81;5056581;28;20057;-86